Airfield :







YOU CAN JOIN US ON...

 
LOGIN :

Register | Disclaimer

   EN    FR    IT 

 









Legend :    VFR   Marginal VFR   IFR   Intensive IFR   Very Intensive IFR
Visi :
Ceiling :
>= 8 km
>= 3000ft
5 to 8 km
1000 to 3000 ft
1500m to 5 km
500 to 1000 ft
800 to 1500m
200 to 500 ft
< 800m
< 200 ft
Symbols :   Thunderstorms  Fog  Heavy snow  Heavy precipitations  Wind > 20 kt






- Airport Elevation : 107 ft


KBVY - Beverly Municipal

CURRENT METAR :
  • 251007Z AUTO 02004KT 3SM BR OVC004 16/15 A3033 RMK AO2 RAE03 P0000 T01610150

EXPIRED METARs :
  • 250957Z AUTO 06004KT 2SM -RA BR OVC004 16/15 A3033 RMK AO2 P0000 T01610150
  • 250953Z AUTO 06003KT 1 1/2SM -RA BR OVC005 16/15 A3033 RMK AO2 RAB12 SLP265 P0001 T01560150
  • 250905Z AUTO 08005KT 4SM BR BKN006 OVC017 16/15 A3033 RMK AO2 T01560150
  • 250853Z AUTO 09004KT 4SM BR FEW007 OVC017 16/14 A3033 RMK AO2 SLP266 60001 T01560144 56015
  • 250826Z AUTO 10006KT 8SM SCT021 OVC029 16/14 A3033 RMK AO2 T01560144
  • 250814Z AUTO 10006KT 6SM BR FEW005 FEW023 OVC031 16/14 A3033 RMK AO2 T01560144
  • 250753Z AUTO 11005KT 9SM OVC032 16/14 A3033 RMK AO2 SLP265 T01560144
  • 250737Z AUTO 10003KT 10SM FEW005 SCT012 OVC031 16/14 A3034 RMK AO2 T01560144
  • 250726Z AUTO 11004KT 8SM SCT005 BKN012 OVC033 16/14 A3034 RMK AO2 T01560144

TAF N/A
KZBW FIR / North America



MET'MAP, your aeronautical weather chart ! - Copyright ORBIFLY December 2007 - Disclaimer

ORBIFLY MET'MAP TEAM :

Programming & Development : Alexandra Zaïnal
Concept & original design : Baudouin d'Aumeries
Assistance for programming : Marc-Olivier Méhu
Technical & hardware support : Manuel Goepfert

Contact : metmap@orbifly.com




SOURCES & CREDITS :

   NOAA